createdAt,value
2023-04-26T00:02:04.858Z,9.00
2023-04-26T00:04:38.660Z,9.00
2023-04-26T00:07:13.739Z,9.00
2023-04-26T00:09:45.067Z,9.00
2023-04-26T00:12:17.042Z,9.00
2023-04-26T00:14:45.674Z,9.00
2023-04-26T00:17:14.280Z,8.90
2023-04-26T00:19:46.756Z,8.90
2023-04-26T00:22:24.263Z,8.90
2023-04-26T00:24:58.665Z,8.90
2023-04-26T00:27:44.666Z,8.90
2023-04-26T00:30:15.278Z,8.80
2023-04-26T00:32:51.359Z,8.80
2023-04-26T00:35:23.574Z,8.70
2023-04-26T00:37:59.410Z,8.70
2023-04-26T00:40:33.572Z,8.70
2023-04-26T00:43:02.242Z,8.60
2023-04-26T00:45:30.997Z,8.60
2023-04-26T00:48:06.579Z,8.60
2023-04-26T00:50:39.742Z,8.50
2023-04-26T00:53:12.976Z,8.50
2023-04-26T00:55:54.562Z,8.40
2023-04-26T00:58:32.594Z,8.40
2023-04-26T01:01:02.378Z,8.30
2023-04-26T01:03:33.961Z,8.30
2023-04-26T01:06:06.049Z,8.20
2023-04-26T01:08:34.871Z,8.10
2023-04-26T01:11:03.808Z,8.10
2023-04-26T01:13:37.691Z,8.00
2023-04-26T01:16:11.656Z,8.00
2023-04-26T01:18:51.430Z,7.90
2023-04-26T01:21:31.893Z,7.90
2023-04-26T01:24:05.102Z,7.80
2023-04-26T01:26:44.230Z,7.70
2023-04-26T01:29:21.069Z,7.80
2023-04-26T01:31:50.091Z,7.70
2023-04-26T01:34:22.863Z,7.70
2023-04-26T01:36:51.727Z,7.50
2023-04-26T01:39:29.052Z,7.70
2023-04-26T01:42:02.473Z,7.60
2023-04-26T01:44:41.027Z,7.60
2023-04-26T01:47:14.805Z,7.60
2023-04-26T01:49:51.911Z,7.80
2023-04-26T01:52:28.264Z,7.60
2023-04-26T01:54:58.606Z,7.70
2023-04-26T01:57:32.046Z,7.60
2023-04-26T02:00:07.759Z,7.60
2023-04-26T02:02:45.229Z,7.60
2023-04-26T02:05:25.966Z,7.60
2023-04-26T02:07:59.926Z,7.60
2023-04-26T02:10:36.440Z,7.60
2023-04-26T02:13:09.093Z,7.60
2023-04-26T02:15:42.208Z,7.70
2023-04-26T02:18:11.753Z,7.60
2023-04-26T02:20:47.419Z,7.70
2023-04-26T02:23:22.708Z,7.60
2023-04-26T02:25:58.652Z,7.70
2023-04-26T02:28:31.637Z,7.70
2023-04-26T02:31:02.858Z,7.80
2023-04-26T02:33:33.664Z,7.70
2023-04-26T02:36:12.533Z,7.70
2023-04-26T02:38:46.171Z,7.70
2023-04-26T02:41:29.708Z,7.70
2023-04-26T02:44:02.535Z,7.70
2023-04-26T02:46:36.177Z,7.70
2023-04-26T02:49:15.730Z,7.70
2023-04-26T02:51:44.134Z,7.70
2023-04-26T02:54:20.471Z,7.70
2023-04-26T02:57:00.050Z,7.50
2023-04-26T02:59:35.627Z,7.70
2023-04-26T03:02:18.856Z,7.60
2023-04-26T03:04:53.817Z,7.60
2023-04-26T03:07:28.221Z,7.60
2023-04-26T03:13:01.859Z,7.50
2023-04-26T03:15:35.130Z,7.40
2023-04-26T03:18:12.336Z,7.40
2023-04-26T03:20:44.572Z,7.40
2023-04-26T03:23:15.712Z,7.40
2023-04-26T03:25:51.194Z,7.30
2023-04-26T03:28:32.260Z,7.30
2023-04-26T03:31:03.340Z,7.30
2023-04-26T03:33:32.827Z,7.20
2023-04-26T03:36:04.501Z,7.20
2023-04-26T03:38:40.183Z,7.10
2023-04-26T03:41:19.668Z,7.10
2023-04-26T03:43:54.737Z,7.00
2023-04-26T03:46:27.017Z,7.00
2023-04-26T03:49:05.513Z,6.90
2023-04-26T03:51:41.960Z,6.80
2023-04-26T03:54:12.843Z,6.80
2023-04-26T03:56:46.366Z,6.70
2023-04-26T03:59:34.663Z,6.70
2023-04-26T04:02:08.420Z,6.70
2023-04-26T04:04:37.924Z,6.70
2023-04-26T04:07:12.520Z,6.60
2023-04-26T04:09:43.101Z,6.60
2023-04-26T04:12:34.943Z,6.60
2023-04-26T04:15:13.641Z,6.70
2023-04-26T04:17:52.360Z,6.50
2023-04-26T04:20:26.177Z,6.50
2023-04-26T04:27:09.585Z,6.40
2023-04-26T04:30:03.489Z,6.50
2023-04-26T04:33:06.085Z,6.50
2023-04-26T04:35:55.898Z,6.60
2023-04-26T04:38:51.401Z,6.40
2023-04-26T04:42:07.119Z,6.50
2023-04-26T04:48:08.459Z,6.60
2023-04-26T04:50:58.757Z,6.50
2023-04-26T04:53:38.092Z,6.60
2023-04-26T04:56:27.274Z,6.60
2023-04-26T04:58:56.463Z,6.80
2023-04-26T05:01:29.797Z,6.70
2023-04-26T05:04:07.212Z,6.80
2023-04-26T05:06:36.239Z,6.60
2023-04-26T05:09:06.126Z,6.80
2023-04-26T05:11:40.110Z,6.80
2023-04-26T05:14:18.584Z,6.90
2023-04-26T05:16:50.766Z,7.20
2023-04-26T05:19:30.929Z,7.00
2023-04-26T05:22:05.481Z,7.10
2023-04-26T05:24:38.107Z,7.10
2023-04-26T05:27:11.628Z,7.20
2023-04-26T05:29:50.550Z,7.20
2023-04-26T05:32:52.686Z,7.40
2023-04-26T05:35:41.508Z,7.20
2023-04-26T05:38:17.828Z,7.40
2023-04-26T05:40:48.466Z,7.30
2023-04-26T05:43:22.590Z,7.30
2023-04-26T05:45:57.977Z,7.40
2023-04-26T05:48:37.469Z,7.50
2023-04-26T05:51:12.339Z,7.60
2023-04-26T05:53:55.454Z,7.70
2023-04-26T05:56:29.060Z,7.70
2023-04-26T05:58:59.181Z,7.70
2023-04-26T06:01:34.415Z,7.70
2023-04-26T06:04:11.042Z,7.80
2023-04-26T06:07:02.509Z,7.80
2023-04-26T06:09:39.746Z,7.80
2023-04-26T06:12:22.144Z,7.90
2023-04-26T06:15:15.038Z,7.90
2023-04-26T06:17:50.674Z,8.00
2023-04-26T06:20:21.872Z,8.10
2023-04-26T06:23:04.191Z,8.00
2023-04-26T06:25:36.537Z,8.10
2023-04-26T06:28:08.316Z,8.20
2023-04-26T06:30:43.890Z,8.20
2023-04-26T06:33:39.744Z,8.40
2023-04-26T06:36:13.652Z,8.30
2023-04-26T06:38:52.072Z,8.40
2023-04-26T06:41:25.711Z,8.40
2023-04-26T06:43:55.790Z,8.60
2023-04-26T06:46:30.582Z,8.70
2023-04-26T06:49:02.227Z,8.80
2023-04-26T06:51:35.659Z,8.90
2023-04-26T06:54:09.177Z,8.90
2023-04-26T06:56:46.484Z,8.80
2023-04-26T06:59:22.294Z,8.90
2023-04-26T07:01:51.767Z,9.00
2023-04-26T07:04:20.939Z,9.00
2023-04-26T07:06:58.084Z,9.20
2023-04-26T07:09:27.939Z,9.40
2023-04-26T07:14:54.720Z,9.50
2023-04-26T07:17:26.258Z,9.60
2023-04-26T07:20:02.915Z,9.80
2023-04-26T07:22:38.413Z,9.90
2023-04-26T07:25:14.461Z,9.90
2023-04-26T07:27:57.147Z,9.90
2023-04-26T07:30:27.547Z,9.80
2023-04-26T07:33:02.395Z,9.80
2023-04-26T07:35:37.342Z,9.80
2023-04-26T07:38:19.950Z,9.90
2023-04-26T07:41:06.697Z,10.00
2023-04-26T07:43:51.495Z,10.00
2023-04-26T07:46:28.461Z,10.10
2023-04-26T07:49:07.681Z,10.20
2023-04-26T07:51:40.708Z,10.40
2023-04-26T07:54:12.893Z,10.40
2023-04-26T07:56:51.998Z,10.40
2023-04-26T07:59:24.996Z,10.40
2023-04-26T08:02:08.041Z,10.40
2023-04-26T08:04:42.047Z,10.50
2023-04-26T08:07:37.072Z,10.60
2023-04-26T08:10:16.808Z,10.70
2023-04-26T08:13:03.735Z,10.80
2023-04-26T08:15:35.958Z,10.90
2023-04-26T08:18:11.989Z,11.00
2023-04-26T08:21:05.547Z,10.90
2023-04-26T08:23:45.752Z,11.10
2023-04-26T08:26:27.784Z,11.20
2023-04-26T08:29:03.631Z,11.20
2023-04-26T08:43:22.608Z,10.70
2023-04-26T08:46:04.789Z,10.60
2023-04-26T08:48:43.150Z,10.90
2023-04-26T08:51:29.984Z,11.00
2023-04-26T08:54:04.940Z,11.20
2023-04-26T08:56:38.803Z,11.30
2023-04-26T08:59:28.676Z,11.30
2023-04-26T09:02:12.266Z,11.20
2023-04-26T09:05:02.399Z,11.20
2023-04-26T09:07:47.198Z,11.30
2023-04-26T09:10:28.636Z,11.40
2023-04-26T09:13:06.148Z,11.60
2023-04-26T09:15:49.465Z,11.70
2023-04-26T09:18:42.238Z,11.80
2023-04-26T09:21:34.590Z,11.90
2023-04-26T09:24:14.765Z,11.90
2023-04-26T09:26:45.943Z,11.90
2023-04-26T09:29:16.104Z,12.00
2023-04-26T09:31:49.959Z,11.90
2023-04-26T09:34:25.643Z,11.80
2023-04-26T09:36:57.255Z,11.70
2023-04-26T09:39:34.107Z,11.80
2023-04-26T09:42:09.328Z,11.90
2023-04-26T09:44:47.403Z,12.10
2023-04-26T09:47:16.792Z,12.20
2023-04-26T09:49:53.667Z,12.20
2023-04-26T09:52:24.612Z,12.00
2023-04-26T09:55:03.391Z,12.00
2023-04-26T09:57:48.225Z,12.00
2023-04-26T10:00:19.842Z,12.20
2023-04-26T10:03:04.077Z,12.40
2023-04-26T10:05:53.762Z,12.40
2023-04-26T10:08:29.109Z,12.40
2023-04-26T10:11:34.905Z,12.40
2023-04-26T10:14:12.095Z,12.40
2023-04-26T10:17:01.144Z,12.40
2023-04-26T10:20:05.353Z,12.30
2023-04-26T10:22:44.986Z,12.00
2023-04-26T10:25:32.144Z,12.00
2023-04-26T10:28:18.095Z,11.90
2023-04-26T10:31:21.103Z,11.90
2023-04-26T10:34:30.098Z,12.10
2023-04-26T10:37:42.715Z,12.10
2023-04-26T10:40:48.647Z,12.30
2023-04-26T10:44:04.505Z,12.80
2023-04-26T10:46:45.306Z,13.00
2023-04-26T10:49:28.194Z,13.20
2023-04-26T10:52:32.766Z,13.40
2023-04-26T10:55:52.827Z,13.50
2023-04-26T10:58:44.611Z,13.70
2023-04-26T11:01:31.906Z,13.40
2023-04-26T11:04:24.510Z,13.40
2023-04-26T11:07:02.088Z,13.40
2023-04-26T11:10:10.119Z,13.00
2023-04-26T11:13:15.100Z,12.80
2023-04-26T11:16:34.302Z,12.70
2023-04-26T11:19:35.076Z,12.80
2023-04-26T11:22:19.328Z,12.90
2023-04-26T11:24:57.738Z,12.90
2023-04-26T11:27:33.780Z,13.10
2023-04-26T11:30:13.053Z,13.20
2023-04-26T11:32:46.938Z,13.40
2023-04-26T11:35:17.611Z,13.50
2023-04-26T11:37:53.105Z,13.70
2023-04-26T11:40:33.376Z,13.70
2023-04-26T11:43:15.363Z,13.80
2023-04-26T11:46:09.542Z,13.90
2023-04-26T11:48:49.665Z,13.80
2023-04-26T11:55:00.934Z,13.30
2023-04-26T11:57:53.107Z,13.00
2023-04-26T12:00:43.751Z,12.90
2023-04-26T12:03:31.186Z,12.80
2023-04-26T12:06:13.102Z,12.50
2023-04-26T12:09:07.291Z,12.60
2023-04-26T12:11:49.733Z,12.60
2023-04-26T12:14:47.312Z,13.10
2023-04-26T12:17:29.571Z,14.20
2023-04-26T12:20:21.469Z,15.10
2023-04-26T12:23:31.754Z,15.60
2023-04-26T12:26:20.053Z,16.10
2023-04-26T12:29:10.373Z,16.10
2023-04-26T12:32:03.166Z,16.00
2023-04-26T12:34:42.053Z,15.80
2023-04-26T12:37:16.270Z,15.40
2023-04-26T12:40:06.774Z,14.90
2023-04-26T12:42:48.824Z,15.00
2023-04-26T12:45:34.696Z,15.50
2023-04-26T12:48:23.706Z,17.00
2023-04-26T12:51:17.212Z,18.40
2023-04-26T12:54:11.240Z,18.80
2023-04-26T12:56:53.277Z,18.50
2023-04-26T13:00:07.848Z,17.90
2023-04-26T13:02:53.496Z,17.40
2023-04-26T13:05:26.811Z,16.70
2023-04-26T13:08:09.470Z,16.30
2023-04-26T13:11:09.674Z,15.90
2023-04-26T13:14:05.261Z,15.40
2023-04-26T13:16:50.460Z,15.20
2023-04-26T13:19:41.460Z,15.20
2023-04-26T13:22:26.318Z,15.10
2023-04-26T13:25:19.201Z,15.00
2023-04-26T13:27:54.830Z,15.30
2023-04-26T13:30:52.577Z,15.70
2023-04-26T13:36:36.205Z,18.30
2023-04-26T13:39:29.430Z,18.90
2023-04-26T13:42:11.810Z,18.90
2023-04-26T13:44:57.235Z,18.70
2023-04-26T13:47:51.834Z,18.10
2023-04-26T13:50:32.158Z,17.60
2023-04-26T13:53:22.404Z,17.00
2023-04-26T14:02:24.322Z,15.70
2023-04-26T14:05:11.764Z,15.40
2023-04-26T14:08:05.859Z,15.30
2023-04-26T14:10:54.196Z,15.40
2023-04-26T14:16:48.230Z,15.30
2023-04-26T14:23:11.695Z,15.50
2023-04-26T14:26:29.583Z,15.50
2023-04-26T14:29:11.356Z,15.20
2023-04-26T14:31:48.399Z,15.00
2023-04-26T14:34:37.557Z,14.80
2023-04-26T14:37:32.690Z,14.70
2023-04-26T14:40:11.792Z,14.60
2023-04-26T14:50:58.821Z,14.00
2023-04-26T15:00:11.429Z,13.80
2023-04-26T15:04:01.318Z,13.90
2023-04-26T15:07:04.894Z,14.30
2023-04-26T15:09:54.113Z,14.70
2023-04-26T15:12:49.204Z,14.80
2023-04-26T15:15:31.054Z,14.90
2023-04-26T15:18:15.303Z,14.80
2023-04-26T15:20:56.366Z,14.90
2023-04-26T15:23:59.371Z,14.70
2023-04-26T15:29:37.277Z,14.40
2023-04-26T15:32:41.225Z,14.20
2023-04-26T15:36:04.279Z,13.90
2023-04-26T15:41:30.605Z,13.40
2023-04-26T15:44:33.636Z,13.30
2023-04-26T15:53:55.136Z,13.10
2023-04-26T15:56:37.019Z,13.10
2023-04-26T15:59:14.878Z,13.30
2023-04-26T16:02:53.552Z,13.00
2023-04-26T16:06:09.939Z,12.90
2023-04-26T16:08:51.174Z,13.00
2023-04-26T16:14:55.722Z,12.90
2023-04-26T16:22:06.225Z,12.80
2023-04-26T16:24:21.418Z,12.50
2023-04-26T16:27:15.601Z,12.60
2023-04-26T16:30:29.422Z,12.60
2023-04-26T16:33:19.801Z,12.80
2023-04-26T16:36:28.964Z,12.50
2023-04-26T16:39:47.020Z,12.40
2023-04-26T16:43:15.294Z,12.20
2023-04-26T16:46:39.875Z,12.40
2023-04-26T16:49:53.343Z,12.20
2023-04-26T16:52:34.749Z,12.20
2023-04-26T16:55:30.537Z,12.20
2023-04-26T16:58:31.586Z,12.20
2023-04-26T17:04:47.779Z,12.10
2023-04-26T17:07:25.116Z,12.00
2023-04-26T17:09:59.925Z,11.80
2023-04-26T17:12:35.765Z,11.80
2023-04-26T17:15:04.880Z,11.90
2023-04-26T17:17:50.961Z,11.80
2023-04-26T17:33:20.280Z,11.60
2023-04-26T17:35:56.960Z,11.40
2023-04-26T17:38:35.522Z,11.60
2023-04-26T17:41:30.672Z,11.40
2023-04-26T17:44:11.883Z,11.60
2023-04-26T17:47:04.092Z,11.60
2023-04-26T17:50:15.327Z,11.50
2023-04-26T17:53:22.819Z,11.50
2023-04-26T18:05:28.352Z,11.20
2023-04-26T18:11:58.067Z,11.30
2023-04-26T18:14:58.765Z,11.30
2023-04-26T18:18:20.916Z,11.20
2023-04-26T18:28:31.488Z,11.20
2023-04-26T18:31:49.371Z,11.10
2023-04-26T18:35:17.333Z,11.20
2023-04-26T19:03:27.673Z,11.00
2023-04-26T19:11:03.464Z,11.00
2023-04-26T19:21:40.052Z,10.90
2023-04-26T19:42:49.962Z,10.60
2023-04-26T19:46:02.608Z,10.60
2023-04-26T19:52:18.468Z,10.50
2023-04-26T19:55:28.337Z,10.50
2023-04-26T19:58:35.237Z,10.50
2023-04-26T20:01:38.265Z,10.50
2023-04-26T20:04:47.145Z,10.40
2023-04-26T20:08:10.716Z,10.30
2023-04-26T20:11:01.549Z,10.10
2023-04-26T20:13:49.841Z,10.20
2023-04-26T20:16:18.527Z,10.10
2023-04-26T20:18:49.280Z,10.10
2023-04-26T20:28:04.299Z,9.80
2023-04-26T20:31:14.010Z,9.70
2023-04-26T20:37:21.911Z,9.50
2023-04-26T20:40:29.820Z,9.40
2023-04-26T20:43:31.041Z,9.30
2023-04-26T20:46:45.985Z,9.30
2023-04-26T20:49:41.417Z,9.10
2023-04-26T20:52:29.702Z,9.00
2023-04-26T20:55:30.734Z,8.90
2023-04-26T20:58:20.412Z,8.70
2023-04-26T21:01:12.730Z,8.60
2023-04-26T21:04:19.907Z,8.50
2023-04-26T21:07:15.673Z,8.40
2023-04-26T21:09:57.083Z,8.30
2023-04-26T21:12:56.414Z,8.10
2023-04-26T21:15:53.506Z,8.10
2023-04-26T21:18:51.812Z,8.00
2023-04-26T21:21:33.854Z,7.80
2023-04-26T21:27:28.716Z,7.80
2023-04-26T21:30:15.370Z,7.70
2023-04-26T21:33:09.170Z,7.60
2023-04-26T21:36:08.181Z,7.60
2023-04-26T21:39:04.215Z,7.50
2023-04-26T21:41:44.810Z,7.40
2023-04-26T21:44:16.504Z,7.30
2023-04-26T21:46:51.503Z,7.20
2023-04-26T21:49:31.363Z,7.20
2023-04-26T21:52:23.660Z,7.10
2023-04-26T21:55:21.388Z,7.10
2023-04-26T21:58:14.363Z,7.10
2023-04-26T22:00:55.301Z,7.20
2023-04-26T22:03:41.583Z,7.00
2023-04-26T22:06:36.145Z,6.70
2023-04-26T22:09:26.675Z,6.80
2023-04-26T22:12:40.512Z,6.90
2023-04-26T22:15:54.297Z,6.70
2023-04-26T22:18:52.230Z,6.60
2023-04-26T22:21:45.658Z,6.40
2023-04-26T22:24:38.568Z,6.50
2023-04-26T22:27:28.690Z,6.40
2023-04-26T22:30:25.665Z,6.40
2023-04-26T22:33:15.953Z,6.20
2023-04-26T22:36:08.056Z,6.30
2023-04-26T22:39:12.872Z,6.20
2023-04-26T22:45:30.142Z,6.00
2023-04-26T22:48:26.864Z,6.00
2023-04-26T22:51:14.295Z,5.90
2023-04-26T22:54:14.812Z,5.90
2023-04-26T22:57:06.041Z,5.80
2023-04-26T23:00:21.380Z,5.90
2023-04-26T23:03:00.563Z,5.90
2023-04-26T23:05:51.142Z,6.00
2023-04-26T23:08:39.634Z,5.80
2023-04-26T23:11:41.575Z,5.70
2023-04-26T23:14:35.836Z,5.60
2023-04-26T23:20:44.732Z,5.60
2023-04-26T23:23:34.392Z,5.40
2023-04-26T23:32:43.504Z,5.40
2023-04-26T23:35:47.446Z,5.50
2023-04-26T23:38:33.038Z,5.20
2023-04-26T23:41:08.807Z,5.30
2023-04-26T23:43:47.620Z,5.30
2023-04-26T23:49:04.375Z,5.30
2023-04-26T23:52:01.462Z,5.00
2023-04-26T23:54:43.674Z,5.10
2023-04-26T23:57:36.882Z,5.00
